createdAt,value
2023-03-15T00:01:16.776Z,2.33
2023-03-15T00:03:44.706Z,2.07
2023-03-15T00:06:13.506Z,1.77
2023-03-15T00:08:40.848Z,1.93
2023-03-15T00:11:08.223Z,2.40
2023-03-15T00:13:35.153Z,1.37
2023-03-15T00:16:04.251Z,2.73
2023-03-15T00:18:32.024Z,1.33
2023-03-15T00:20:59.283Z,1.77
2023-03-15T00:23:26.630Z,1.50
2023-03-15T00:25:54.596Z,1.33
2023-03-15T00:28:22.033Z,1.97
2023-03-15T00:30:49.286Z,2.13
2023-03-15T00:33:17.046Z,1.43
2023-03-15T00:35:45.864Z,1.80
2023-03-15T00:38:14.505Z,1.80
2023-03-15T00:40:41.668Z,3.03
2023-03-15T00:43:08.649Z,1.53
2023-03-15T00:45:35.844Z,3.27
2023-03-15T00:48:02.785Z,1.97
2023-03-15T00:50:29.683Z,1.80
2023-03-15T00:52:56.664Z,1.43
2023-03-15T00:55:23.690Z,2.20
2023-03-15T00:57:52.299Z,1.60
2023-03-15T01:00:25.242Z,1.90
2023-03-15T01:02:54.946Z,2.43
2023-03-15T01:05:22.747Z,1.57
2023-03-15T01:07:50.239Z,1.40
2023-03-15T01:10:18.130Z,2.77
2023-03-15T01:12:46.017Z,1.87
2023-03-15T01:15:15.554Z,1.20
2023-03-15T01:17:43.034Z,2.00
2023-03-15T01:20:14.452Z,1.60
2023-03-15T01:22:41.722Z,2.47
2023-03-15T01:25:10.069Z,2.67
2023-03-15T01:27:37.246Z,1.60
2023-03-15T01:30:05.288Z,1.73
2023-03-15T01:32:32.785Z,2.57
2023-03-15T01:34:59.868Z,1.87
2023-03-15T01:37:27.536Z,1.60
2023-03-15T01:39:56.138Z,1.73
2023-03-15T01:42:23.195Z,1.83
2023-03-15T01:45:03.144Z,1.60
2023-03-15T01:47:30.134Z,2.27
2023-03-15T01:50:09.369Z,2.17
2023-03-15T01:52:39.628Z,1.93
2023-03-15T01:55:15.877Z,2.10
2023-03-15T01:57:47.308Z,2.30
2023-03-15T02:00:20.415Z,1.80
2023-03-15T02:03:07.066Z,2.20
2023-03-15T02:05:46.403Z,2.37
2023-03-15T02:08:17.738Z,1.90
2023-03-15T02:10:50.003Z,3.00
2023-03-15T02:13:22.935Z,2.73
2023-03-15T02:15:53.837Z,4.53
2023-03-15T02:18:21.610Z,1.90
2023-03-15T02:21:08.537Z,1.67
2023-03-15T02:23:35.706Z,1.63
2023-03-15T02:26:33.631Z,1.90
2023-03-15T02:29:01.379Z,3.50
2023-03-15T02:31:29.752Z,2.03
2023-03-15T02:33:56.847Z,1.77
2023-03-15T02:36:29.916Z,2.80
2023-03-15T02:38:57.457Z,2.07
2023-03-15T02:41:44.675Z,2.27
2023-03-15T02:44:22.273Z,2.27
2023-03-15T02:46:54.101Z,3.23
2023-03-15T02:49:27.473Z,5.33
2023-03-15T02:51:54.437Z,2.33
2023-03-15T02:54:21.416Z,2.10
2023-03-15T02:56:48.431Z,2.83
2023-03-15T02:59:15.439Z,2.27
2023-03-15T03:01:42.666Z,2.87
2023-03-15T03:04:10.185Z,2.00
2023-03-15T03:06:37.181Z,2.23
2023-03-15T03:09:04.721Z,1.50
2023-03-15T03:11:31.768Z,1.90
2023-03-15T03:13:58.629Z,2.13
2023-03-15T03:16:25.762Z,3.73
2023-03-15T03:18:52.675Z,1.90
2023-03-15T03:21:19.833Z,5.63
2023-03-15T03:23:46.753Z,2.80
2023-03-15T03:26:17.721Z,2.40
2023-03-15T03:28:48.898Z,2.67
2023-03-15T03:31:27.863Z,1.80
2023-03-15T03:33:56.352Z,3.53
2023-03-15T03:36:25.085Z,3.03
2023-03-15T03:38:54.033Z,3.20
2023-03-15T03:41:21.530Z,2.10
2023-03-15T03:43:49.294Z,2.70
2023-03-15T03:46:16.300Z,1.90
2023-03-15T03:48:43.338Z,3.83
2023-03-15T03:51:11.517Z,3.17
2023-03-15T03:53:38.438Z,3.67
2023-03-15T03:56:07.393Z,2.57
2023-03-15T03:58:34.940Z,1.80
2023-03-15T04:01:01.950Z,3.10
2023-03-15T04:03:28.827Z,3.07
2023-03-15T04:05:58.165Z,3.33
2023-03-15T04:08:26.655Z,2.03
2023-03-15T04:10:57.053Z,1.77
2023-03-15T04:13:25.608Z,2.27
2023-03-15T04:15:57.989Z,2.00
2023-03-15T04:18:25.457Z,2.83
2023-03-15T04:20:54.908Z,3.13
2023-03-15T04:23:24.238Z,2.03
2023-03-15T04:25:55.332Z,1.57
2023-03-15T04:28:23.062Z,2.23
2023-03-15T04:30:51.526Z,3.90
2023-03-15T04:33:18.554Z,3.63
2023-03-15T04:35:45.581Z,4.63
2023-03-15T04:38:12.814Z,4.30
2023-03-15T04:40:39.872Z,4.60
2023-03-15T04:43:06.790Z,4.00
2023-03-15T04:45:34.314Z,3.57
2023-03-15T04:48:02.914Z,4.27
2023-03-15T04:50:31.155Z,3.77
2023-03-15T04:52:59.864Z,4.23
2023-03-15T04:55:27.056Z,4.17
2023-03-15T04:57:54.791Z,3.97
2023-03-15T05:00:21.981Z,4.53
2023-03-15T05:02:55.158Z,3.17
2023-03-15T05:05:24.419Z,4.13
2023-03-15T05:07:51.962Z,2.63
2023-03-15T05:10:19.822Z,4.30
2023-03-15T05:12:46.846Z,5.53
2023-03-15T05:15:13.877Z,5.03
2023-03-15T05:17:40.887Z,5.47
2023-03-15T05:20:13.076Z,5.30
2023-03-15T05:22:41.237Z,4.07
2023-03-15T05:25:10.994Z,5.20
2023-03-15T05:27:38.867Z,4.50
2023-03-15T05:30:08.237Z,5.23
2023-03-15T05:32:35.394Z,5.13
2023-03-15T05:35:04.115Z,5.17
2023-03-15T05:37:32.744Z,4.30
2023-03-15T05:40:01.556Z,5.10
2023-03-15T05:42:29.686Z,4.30
2023-03-15T05:44:57.630Z,4.10
2023-03-15T05:47:24.697Z,4.43
2023-03-15T05:49:52.573Z,4.10
2023-03-15T05:52:19.846Z,3.50
2023-03-15T05:54:46.911Z,3.17
2023-03-15T05:57:13.992Z,4.00
2023-03-15T05:59:41.082Z,2.90
2023-03-15T06:02:08.465Z,2.57
2023-03-15T06:04:36.642Z,2.37
2023-03-15T06:07:05.142Z,3.43
2023-03-15T06:09:32.528Z,2.80
2023-03-15T06:11:59.737Z,3.87
2023-03-15T06:14:27.797Z,3.50
2023-03-15T06:16:55.182Z,3.23
2023-03-15T06:19:23.409Z,3.00
2023-03-15T06:21:51.530Z,4.80
2023-03-15T06:24:18.496Z,4.33
2023-03-15T06:26:45.464Z,3.37
2023-03-15T06:29:12.477Z,2.60
2023-03-15T06:31:39.539Z,3.00
2023-03-15T06:34:06.536Z,2.80
2023-03-15T06:36:33.606Z,2.33
2023-03-15T06:39:00.619Z,2.13
2023-03-15T06:41:27.793Z,1.93
2023-03-15T06:43:54.741Z,2.20
2023-03-15T06:46:21.915Z,1.67
2023-03-15T06:48:48.927Z,10.43
2023-03-15T06:51:16.017Z,3.00
2023-03-15T06:53:43.084Z,2.97
2023-03-15T06:56:10.133Z,2.70
2023-03-15T06:58:37.095Z,3.63
2023-03-15T07:01:04.351Z,3.00
2023-03-15T07:03:31.557Z,1.83
2023-03-15T07:05:58.756Z,2.60
2023-03-15T07:08:26.320Z,2.07
2023-03-15T07:10:53.374Z,5.00
2023-03-15T07:13:20.506Z,3.40
2023-03-15T07:15:53.695Z,4.50
2023-03-15T07:18:21.086Z,3.23
2023-03-15T07:20:48.136Z,3.10
2023-03-15T07:23:15.153Z,2.73
2023-03-15T07:25:54.352Z,4.77
2023-03-15T07:28:24.028Z,4.30
2023-03-15T07:31:03.665Z,3.33
2023-03-15T07:33:33.883Z,3.33
2023-03-15T07:36:04.428Z,5.83
2023-03-15T07:38:32.992Z,3.63
2023-03-15T07:41:03.442Z,3.13
2023-03-15T07:43:31.420Z,5.23
2023-03-15T07:45:58.456Z,6.13
2023-03-15T07:48:25.420Z,4.70
2023-03-15T07:50:52.799Z,3.50
2023-03-15T07:53:30.865Z,3.10
2023-03-15T07:55:58.018Z,6.67
2023-03-15T07:58:25.152Z,3.53
2023-03-15T08:00:56.630Z,9.13
2023-03-15T08:03:27.232Z,4.53
2023-03-15T08:05:54.494Z,9.43
2023-03-15T08:08:21.460Z,6.40
2023-03-15T08:10:48.681Z,11.33
2023-03-15T08:13:15.622Z,4.90
2023-03-15T08:15:47.524Z,7.27
2023-03-15T08:18:15.226Z,13.10
2023-03-15T08:20:42.375Z,11.97
2023-03-15T08:23:10.281Z,5.70
2023-03-15T08:25:41.069Z,5.13
2023-03-15T08:28:08.621Z,8.57
2023-03-15T08:30:35.667Z,7.97
2023-03-15T08:33:03.933Z,13.00
2023-03-15T08:35:33.390Z,13.23
2023-03-15T08:38:03.633Z,11.33
2023-03-15T08:40:31.488Z,12.13
2023-03-15T08:43:00.239Z,12.90
2023-03-15T08:45:27.847Z,12.03
2023-03-15T08:47:59.457Z,6.27
2023-03-15T08:50:28.203Z,7.20
2023-03-15T08:52:55.563Z,4.27
2023-03-15T08:55:22.923Z,3.90
2023-03-15T08:57:49.940Z,5.13
2023-03-15T09:00:27.468Z,7.70
2023-03-15T09:02:55.580Z,3.83
2023-03-15T09:05:25.308Z,6.00
2023-03-15T09:07:53.520Z,3.30
2023-03-15T09:10:22.346Z,7.87
2023-03-15T09:12:54.171Z,3.40
2023-03-15T09:15:22.221Z,8.47
2023-03-15T09:17:51.820Z,9.03
2023-03-15T09:20:22.630Z,4.60
2023-03-15T09:22:55.814Z,7.97
2023-03-15T09:25:24.058Z,3.87
2023-03-15T09:27:51.706Z,4.17
2023-03-15T09:30:19.512Z,7.17
2023-03-15T09:32:46.885Z,8.57
2023-03-15T09:35:17.894Z,4.10
2023-03-15T09:37:45.776Z,5.57
2023-03-15T09:40:39.312Z,5.20
2023-03-15T09:43:23.294Z,6.27
2023-03-15T09:46:14.618Z,2.93
2023-03-15T09:48:53.299Z,3.77
2023-03-15T09:51:58.387Z,6.63
2023-03-15T09:54:36.592Z,5.00
2023-03-15T09:57:10.726Z,3.40
2023-03-15T09:59:47.006Z,8.80
2023-03-15T10:02:17.065Z,9.23
2023-03-15T10:04:47.655Z,6.50
2023-03-15T10:07:16.832Z,3.83
2023-03-15T10:09:46.315Z,7.60
2023-03-15T10:12:16.354Z,3.83
2023-03-15T10:15:24.055Z,5.43
2023-03-15T10:17:59.686Z,5.47
2023-03-15T10:20:35.804Z,4.33
2023-03-15T10:23:18.202Z,4.30
2023-03-15T10:25:47.071Z,3.07
2023-03-15T10:28:37.724Z,3.63
2023-03-15T10:31:22.283Z,6.97
2023-03-15T10:33:57.623Z,4.30
2023-03-15T10:36:26.413Z,3.47
2023-03-15T10:38:53.531Z,3.70
2023-03-15T10:41:41.181Z,11.73
2023-03-15T10:44:27.637Z,6.73
2023-03-15T10:47:21.879Z,6.67
2023-03-15T10:49:50.976Z,6.50
2023-03-15T10:52:46.109Z,3.90
2023-03-15T10:55:19.233Z,3.80
2023-03-15T10:58:02.104Z,3.80
2023-03-15T11:00:36.455Z,6.07
2023-03-15T11:03:23.312Z,12.07
2023-03-15T11:05:57.127Z,4.23
2023-03-15T11:08:42.249Z,8.67
2023-03-15T11:11:10.755Z,2.93
2023-03-15T11:13:40.590Z,3.47
2023-03-15T11:16:19.949Z,7.23
2023-03-15T11:18:55.381Z,3.90
2023-03-15T11:21:26.793Z,5.80
2023-03-15T11:23:55.084Z,3.93
2023-03-15T11:26:33.495Z,6.97
2023-03-15T11:29:21.936Z,5.43
2023-03-15T11:31:51.541Z,3.80
2023-03-15T11:34:27.713Z,9.67
2023-03-15T11:37:08.341Z,6.10
2023-03-15T11:40:16.080Z,4.53
2023-03-15T11:42:55.416Z,3.30
2023-03-15T11:45:44.617Z,3.87
2023-03-15T11:48:16.772Z,3.47
2023-03-15T11:50:45.332Z,3.73
2023-03-15T11:53:17.969Z,5.00
2023-03-15T11:55:53.840Z,5.43
2023-03-15T11:58:32.572Z,2.80
2023-03-15T12:01:06.290Z,2.97
2023-03-15T12:03:43.150Z,2.43
2023-03-15T12:06:17.632Z,2.30
2023-03-15T12:08:55.917Z,1.77
2023-03-15T12:11:22.825Z,1.80
2023-03-15T12:14:02.065Z,2.60
2023-03-15T12:16:35.141Z,2.23
2023-03-15T12:19:10.985Z,2.23
2023-03-15T12:21:46.984Z,3.13
2023-03-15T12:24:25.685Z,5.23
2023-03-15T12:27:06.831Z,1.90
2023-03-15T12:29:36.373Z,4.33
2023-03-15T12:32:03.231Z,4.00
2023-03-15T12:34:53.272Z,3.70
2023-03-15T12:37:45.637Z,4.47
2023-03-15T12:40:15.465Z,5.87
2023-03-15T12:42:42.317Z,3.73
2023-03-15T12:45:18.226Z,3.10
2023-03-15T12:48:12.993Z,3.30
2023-03-15T12:50:46.181Z,2.70
2023-03-15T12:53:25.262Z,3.77
2023-03-15T12:55:59.494Z,3.63
2023-03-15T12:58:37.219Z,10.90
2023-03-15T13:01:07.302Z,4.20
2023-03-15T13:03:36.542Z,5.00
2023-03-15T13:06:26.141Z,3.90
2023-03-15T13:09:25.156Z,6.30
2023-03-15T13:12:35.646Z,4.17
2023-03-15T13:15:33.160Z,4.23
2023-03-15T13:18:18.316Z,3.97
2023-03-15T13:21:12.826Z,3.93
2023-03-15T13:23:45.262Z,4.37
2023-03-15T13:26:33.384Z,4.10
2023-03-15T13:29:15.499Z,3.60
2023-03-15T13:31:46.129Z,7.53
2023-03-15T13:34:20.818Z,4.10
2023-03-15T13:36:57.420Z,4.13
2023-03-15T13:39:31.704Z,5.10
2023-03-15T13:42:04.881Z,4.37
2023-03-15T13:44:33.718Z,4.83
2023-03-15T13:47:01.305Z,3.27
2023-03-15T13:49:34.486Z,4.87
2023-03-15T13:52:12.328Z,3.53
2023-03-15T13:54:41.201Z,3.90
2023-03-15T13:57:19.218Z,4.60
2023-03-15T14:00:23.488Z,2.87
2023-03-15T14:02:59.279Z,5.33
2023-03-15T14:05:34.953Z,3.53
2023-03-15T14:08:07.724Z,5.40
2023-03-15T14:10:37.308Z,5.57
2023-03-15T14:13:32.306Z,2.77
2023-03-15T14:16:13.002Z,3.40
2023-03-15T14:18:42.613Z,2.80
2023-03-15T14:21:20.278Z,4.60
2023-03-15T14:23:49.506Z,2.40
2023-03-15T14:26:23.795Z,2.33
2023-03-15T14:29:19.305Z,2.33
2023-03-15T14:31:50.832Z,2.50
2023-03-15T14:34:47.237Z,2.60
2023-03-15T14:37:39.295Z,2.93
2023-03-15T14:40:21.557Z,4.53
2023-03-15T14:42:51.148Z,3.13
2023-03-15T14:45:19.261Z,2.50
2023-03-15T14:47:57.113Z,3.33
2023-03-15T14:50:28.544Z,5.73
2023-03-15T14:52:59.464Z,3.67
2023-03-15T14:55:35.279Z,3.00
2023-03-15T14:58:15.923Z,5.33
2023-03-15T15:00:45.639Z,2.80
2023-03-15T15:03:26.112Z,2.83
2023-03-15T15:05:53.153Z,8.80
2023-03-15T15:08:24.913Z,3.87
2023-03-15T15:10:56.030Z,2.80
2023-03-15T15:13:29.382Z,2.50
2023-03-15T15:15:57.761Z,2.30
2023-03-15T15:18:27.902Z,4.87
2023-03-15T15:21:07.105Z,5.33
2023-03-15T15:23:54.897Z,4.37
2023-03-15T15:26:27.721Z,3.10
2023-03-15T15:28:55.740Z,2.17
2023-03-15T15:31:25.427Z,4.20
2023-03-15T15:33:54.908Z,3.13
2023-03-15T15:36:25.904Z,6.70
2023-03-15T15:38:53.171Z,4.07
2023-03-15T15:41:26.174Z,3.03
2023-03-15T15:43:54.104Z,4.20
2023-03-15T15:46:21.127Z,4.70
2023-03-15T15:48:48.413Z,4.20
2023-03-15T15:51:32.510Z,3.80
2023-03-15T15:54:01.746Z,5.30
2023-03-15T15:56:44.570Z,3.90
2023-03-15T15:59:15.905Z,3.80
2023-03-15T16:01:58.837Z,3.83
2023-03-15T16:04:27.930Z,7.23
2023-03-15T16:06:59.669Z,4.83
2023-03-15T16:09:30.531Z,7.53
2023-03-15T16:11:58.687Z,2.90
2023-03-15T16:14:25.686Z,2.73
2023-03-15T16:16:52.703Z,6.90
2023-03-15T16:19:19.724Z,5.53
2023-03-15T16:21:50.513Z,6.50
2023-03-15T16:24:19.908Z,5.43
2023-03-15T16:26:48.911Z,4.47
2023-03-15T16:29:23.338Z,3.00
2023-03-15T16:31:51.551Z,3.33
2023-03-15T16:34:20.020Z,3.33
2023-03-15T16:36:49.795Z,3.43
2023-03-15T16:39:18.479Z,3.90
2023-03-15T16:41:45.571Z,4.07
2023-03-15T16:44:19.572Z,2.87
2023-03-15T16:46:48.118Z,7.30
2023-03-15T16:49:16.073Z,3.70
2023-03-15T16:51:49.760Z,3.67
2023-03-15T16:54:30.512Z,3.73
2023-03-15T16:56:58.018Z,12.03
2023-03-15T16:59:24.931Z,3.40
2023-03-15T17:01:51.902Z,3.60
2023-03-15T17:04:19.293Z,7.13
2023-03-15T17:06:47.155Z,6.90
2023-03-15T17:09:32.401Z,5.03
2023-03-15T17:11:59.439Z,10.60
2023-03-15T17:14:32.594Z,7.03
2023-03-15T17:17:01.704Z,9.73
2023-03-15T17:19:28.815Z,11.60
2023-03-15T17:21:55.884Z,12.53
2023-03-15T17:24:23.359Z,12.47
2023-03-15T17:26:51.074Z,11.80
2023-03-15T17:29:18.243Z,8.20
2023-03-15T17:31:45.262Z,7.70
2023-03-15T17:34:12.250Z,12.60
2023-03-15T17:36:41.125Z,11.50
2023-03-15T17:39:12.969Z,8.73
2023-03-15T17:41:46.500Z,6.47
2023-03-15T17:44:14.258Z,12.30
2023-03-15T17:46:41.564Z,5.47
2023-03-15T17:49:10.527Z,7.53
2023-03-15T17:51:38.911Z,5.93
2023-03-15T17:54:14.252Z,6.40
2023-03-15T17:56:41.570Z,6.20
2023-03-15T17:59:12.223Z,5.20
2023-03-15T18:01:43.695Z,6.53
2023-03-15T18:04:17.170Z,4.83
2023-03-15T18:09:38.783Z,5.33
2023-03-15T18:12:15.533Z,5.90
2023-03-15T18:15:27.918Z,5.77
2023-03-15T18:18:34.053Z,5.13
2023-03-15T18:21:24.838Z,5.40
2023-03-15T18:24:30.720Z,13.20
2023-03-15T18:27:05.322Z,7.43
2023-03-15T18:29:32.327Z,6.37
2023-03-15T18:31:59.344Z,6.23
2023-03-15T18:34:26.428Z,7.07
2023-03-15T18:36:53.573Z,8.00
2023-03-15T18:39:22.899Z,9.20
2023-03-15T18:41:50.005Z,8.43
2023-03-15T18:44:17.163Z,9.47
2023-03-15T18:46:44.271Z,7.97
2023-03-15T18:49:11.340Z,8.67
2023-03-15T18:51:38.520Z,8.67
2023-03-15T18:54:09.827Z,9.30
2023-03-15T18:56:37.527Z,9.20
2023-03-15T18:59:05.797Z,8.30
2023-03-15T19:01:33.868Z,6.03
2023-03-15T19:04:05.086Z,6.07
2023-03-15T19:06:38.702Z,8.03
2023-03-15T19:09:12.070Z,6.63
2023-03-15T19:11:41.903Z,6.30
2023-03-15T19:14:12.375Z,8.20
2023-03-15T19:16:41.945Z,6.00
2023-03-15T19:19:09.729Z,6.37
2023-03-15T19:21:44.331Z,10.17
2023-03-15T19:24:13.500Z,11.63
2023-03-15T19:26:40.819Z,7.40
2023-03-15T19:29:08.789Z,11.07
2023-03-15T19:31:41.655Z,9.13
2023-03-15T19:34:08.860Z,10.40
2023-03-15T19:36:35.824Z,7.33
2023-03-15T19:39:05.878Z,7.37
2023-03-15T19:41:33.856Z,6.27
2023-03-15T19:44:00.954Z,8.30
2023-03-15T19:46:28.764Z,5.70
2023-03-15T19:48:57.404Z,7.50
2023-03-15T19:51:26.808Z,7.90
2023-03-15T19:53:54.040Z,6.40
2023-03-15T19:56:22.833Z,8.20
2023-03-15T19:58:51.595Z,11.03
2023-03-15T20:01:18.600Z,10.43
2023-03-15T20:03:45.794Z,8.30
2023-03-15T20:06:15.943Z,7.33
2023-03-15T20:08:45.762Z,10.13
2023-03-15T20:11:20.148Z,7.40
2023-03-15T20:13:48.921Z,10.50
2023-03-15T20:16:17.010Z,10.00
2023-03-15T20:18:47.103Z,8.83
2023-03-15T20:21:16.075Z,8.03
2023-03-15T20:23:43.311Z,6.20
2023-03-15T20:26:14.559Z,10.13
2023-03-15T20:28:44.472Z,8.10
2023-03-15T20:31:17.820Z,8.07
2023-03-15T20:33:50.263Z,10.00
2023-03-15T20:36:18.762Z,11.70
2023-03-15T20:38:46.605Z,8.53
2023-03-15T20:41:14.025Z,7.00
2023-03-15T20:43:42.830Z,9.33
2023-03-15T20:46:10.136Z,7.47
2023-03-15T20:48:37.949Z,7.73
2023-03-15T20:51:06.889Z,10.50
2023-03-15T20:53:36.449Z,8.63
2023-03-15T20:56:05.081Z,8.90
2023-03-15T20:58:32.720Z,11.60
2023-03-15T21:01:13.238Z,11.93
2023-03-15T21:03:40.912Z,7.87
2023-03-15T21:06:08.789Z,6.77
2023-03-15T21:08:36.992Z,9.53
2023-03-15T21:11:06.755Z,9.53
2023-03-15T21:13:35.818Z,12.80
2023-03-15T21:16:04.848Z,8.47
2023-03-15T21:18:33.899Z,8.67
2023-03-15T21:21:07.807Z,10.97
2023-03-15T21:23:36.491Z,10.30
2023-03-15T21:26:07.592Z,15.13
2023-03-15T21:28:35.076Z,10.03
2023-03-15T21:31:02.209Z,8.37
2023-03-15T21:33:31.447Z,12.30
2023-03-15T21:35:59.878Z,10.40
2023-03-15T21:38:29.084Z,11.20
2023-03-15T21:40:59.804Z,10.90
2023-03-15T21:43:32.872Z,9.40
2023-03-15T21:46:13.184Z,9.87
2023-03-15T21:48:42.146Z,10.63
2023-03-15T21:51:09.761Z,9.67
2023-03-15T21:53:37.431Z,10.43
2023-03-15T21:56:05.328Z,10.17
2023-03-15T21:58:32.744Z,11.63
2023-03-15T22:01:06.935Z,11.50
2023-03-15T22:03:35.707Z,13.10
2023-03-15T22:06:02.737Z,11.47
2023-03-15T22:08:29.792Z,12.23
2023-03-15T22:10:59.119Z,13.00
2023-03-15T22:13:27.232Z,10.20
2023-03-15T22:15:54.713Z,14.37
2023-03-15T22:18:22.265Z,11.17
2023-03-15T22:20:51.318Z,10.87
2023-03-15T22:23:18.783Z,11.47
2023-03-15T22:25:46.335Z,12.00
2023-03-15T22:28:14.251Z,10.27
2023-03-15T22:30:42.133Z,12.10
2023-03-15T22:33:09.830Z,10.50
2023-03-15T22:35:36.825Z,17.30
2023-03-15T22:38:10.203Z,12.60
2023-03-15T22:40:43.139Z,11.97
2023-03-15T22:43:10.191Z,10.73
2023-03-15T22:45:37.334Z,11.73
2023-03-15T22:48:04.587Z,12.17
2023-03-15T22:50:31.846Z,12.57
2023-03-15T22:52:58.841Z,13.80
2023-03-15T22:55:26.242Z,14.93
2023-03-15T22:57:54.116Z,12.70
2023-03-15T23:00:22.682Z,14.67
2023-03-15T23:02:49.881Z,11.80
2023-03-15T23:05:19.798Z,15.53
2023-03-15T23:07:47.640Z,19.77
2023-03-15T23:10:15.489Z,14.57
2023-03-15T23:12:42.694Z,13.03
2023-03-15T23:15:12.540Z,15.00
2023-03-15T23:17:39.543Z,14.20
2023-03-15T23:20:07.758Z,15.37
2023-03-15T23:22:35.338Z,18.37
2023-03-15T23:25:03.136Z,17.40
2023-03-15T23:27:30.854Z,14.73
2023-03-15T23:29:57.916Z,15.80
2023-03-15T23:32:25.319Z,15.67
2023-03-15T23:34:53.812Z,16.67
2023-03-15T23:37:23.805Z,13.87
2023-03-15T23:39:53.791Z,14.30
2023-03-15T23:42:26.262Z,11.93
2023-03-15T23:44:54.120Z,15.10
2023-03-15T23:47:23.710Z,13.60
2023-03-15T23:49:51.680Z,12.77
2023-03-15T23:52:19.470Z,17.50
2023-03-15T23:54:46.440Z,12.80
2023-03-15T23:57:15.489Z,12.70
2023-03-15T23:59:43.481Z,14.53
